sensor_id;sensor_type;location;lat;lon;timestamp;P1;durP1;ratioP1;P2;durP2;ratioP2
59659;SDS011;45534;52.690;6.268;2024-01-30T00:01:48;10.48;;;8.77;;
59659;SDS011;45534;52.690;6.268;2024-01-30T00:04:14;15.95;;;9.43;;
59659;SDS011;45534;52.690;6.268;2024-01-30T00:06:41;14.70;;;8.32;;
59659;SDS011;45534;52.690;6.268;2024-01-30T00:09:07;14.70;;;8.35;;
59659;SDS011;45534;52.690;6.268;2024-01-30T00:11:34;15.82;;;9.75;;
59659;SDS011;45534;52.690;6.268;2024-01-30T00:13:59;13.77;;;10.93;;
59659;SDS011;45534;52.690;6.268;2024-01-30T00:16:25;13.60;;;7.88;;
59659;SDS011;45534;52.690;6.268;2024-01-30T00:18:52;14.88;;;11.80;;
59659;SDS011;45534;52.690;6.268;2024-01-30T00:21:18;13.52;;;9.20;;
59659;SDS011;45534;52.690;6.268;2024-01-30T00:23:44;18.17;;;9.65;;
59659;SDS011;45534;52.690;6.268;2024-01-30T00:26:10;13.77;;;8.70;;
59659;SDS011;45534;52.690;6.268;2024-01-30T00:28:36;12.63;;;9.15;;
59659;SDS011;45534;52.690;6.268;2024-01-30T00:31:03;22.77;;;9.85;;
59659;SDS011;45534;52.690;6.268;2024-01-30T00:33:29;13.70;;;9.10;;
59659;SDS011;45534;52.690;6.268;2024-01-30T00:35:55;16.13;;;10.43;;
59659;SDS011;45534;52.690;6.268;2024-01-30T00:38:21;12.63;;;8.88;;
59659;SDS011;45534;52.690;6.268;2024-01-30T00:40:47;16.45;;;11.85;;
59659;SDS011;45534;52.690;6.268;2024-01-30T00:43:13;14.98;;;10.82;;
59659;SDS011;45534;52.690;6.268;2024-01-30T00:45:39;14.52;;;10.23;;
59659;SDS011;45534;52.690;6.268;2024-01-30T00:48:05;17.55;;;10.50;;
59659;SDS011;45534;52.690;6.268;2024-01-30T00:50:30;13.63;;;9.40;;
59659;SDS011;45534;52.690;6.268;2024-01-30T00:52:56;17.80;;;10.57;;
59659;SDS011;45534;52.690;6.268;2024-01-30T00:55:22;16.45;;;10.18;;
59659;SDS011;45534;52.690;6.268;2024-01-30T00:57:47;20.33;;;11.50;;
59659;SDS011;45534;52.690;6.268;2024-01-30T01:00:13;19.00;;;12.52;;
59659;SDS011;45534;52.690;6.268;2024-01-30T01:02:42;21.88;;;11.30;;
59659;SDS011;45534;52.690;6.268;2024-01-30T01:05:08;17.55;;;10.38;;
59659;SDS011;45534;52.690;6.268;2024-01-30T01:07:34;21.23;;;12.10;;
59659;SDS011;45534;52.690;6.268;2024-01-30T01:10:01;18.80;;;10.20;;
59659;SDS011;45534;52.690;6.268;2024-01-30T01:12:27;16.80;;;12.90;;
59659;SDS011;45534;52.690;6.268;2024-01-30T01:14:53;21.23;;;12.60;;
59659;SDS011;45534;52.690;6.268;2024-01-30T01:17:19;19.63;;;12.48;;
59659;SDS011;45534;52.690;6.268;2024-01-30T01:19:44;24.17;;;13.00;;
59659;SDS011;45534;52.690;6.268;2024-01-30T01:22:10;18.33;;;14.20;;
59659;SDS011;45534;52.690;6.268;2024-01-30T01:24:36;19.05;;;13.85;;
59659;SDS011;45534;52.690;6.268;2024-01-30T01:27:02;22.58;;;14.10;;
59659;SDS011;45534;52.690;6.268;2024-01-30T01:29:28;17.10;;;12.65;;
59659;SDS011;45534;52.690;6.268;2024-01-30T01:32:00;21.13;;;13.32;;
59659;SDS011;45534;52.690;6.268;2024-01-30T01:34:26;18.20;;;14.23;;
59659;SDS011;45534;52.690;6.268;2024-01-30T01:36:51;18.02;;;10.32;;
59659;SDS011;45534;52.690;6.268;2024-01-30T01:39:20;19.90;;;12.20;;
59659;SDS011;45534;52.690;6.268;2024-01-30T01:41:47;18.63;;;12.63;;
59659;SDS011;45534;52.690;6.268;2024-01-30T01:44:13;16.17;;;12.85;;
59659;SDS011;45534;52.690;6.268;2024-01-30T01:46:39;19.92;;;12.45;;
59659;SDS011;45534;52.690;6.268;2024-01-30T01:49:05;18.83;;;13.15;;
59659;SDS011;45534;52.690;6.268;2024-01-30T01:51:33;17.33;;;11.15;;
59659;SDS011;45534;52.690;6.268;2024-01-30T01:54:04;19.80;;;10.27;;
59659;SDS011;45534;52.690;6.268;2024-01-30T01:56:30;19.83;;;12.57;;
59659;SDS011;45534;52.690;6.268;2024-01-30T01:59:04;20.58;;;13.48;;
59659;SDS011;45534;52.690;6.268;2024-01-30T02:01:37;25.20;;;13.10;;
59659;SDS011;45534;52.690;6.268;2024-01-30T02:04:04;20.90;;;12.27;;
59659;SDS011;45534;52.690;6.268;2024-01-30T02:06:29;18.48;;;12.00;;
59659;SDS011;45534;52.690;6.268;2024-01-30T02:08:56;16.77;;;13.38;;
59659;SDS011;45534;52.690;6.268;2024-01-30T02:11:22;20.92;;;13.43;;
59659;SDS011;45534;52.690;6.268;2024-01-30T02:13:48;17.27;;;11.07;;
59659;SDS011;45534;52.690;6.268;2024-01-30T02:16:14;20.73;;;13.93;;
59659;SDS011;45534;52.690;6.268;2024-01-30T02:18:40;21.38;;;13.93;;
59659;SDS011;45534;52.690;6.268;2024-01-30T02:23:39;24.00;;;12.40;;
59659;SDS011;45534;52.690;6.268;2024-01-30T02:26:06;26.95;;;13.77;;
59659;SDS011;45534;52.690;6.268;2024-01-30T02:28:31;21.85;;;15.82;;
59659;SDS011;45534;52.690;6.268;2024-01-30T02:30:57;17.73;;;11.23;;
59659;SDS011;45534;52.690;6.268;2024-01-30T02:33:23;16.55;;;11.18;;
59659;SDS011;45534;52.690;6.268;2024-01-30T02:35:48;17.45;;;11.00;;
59659;SDS011;45534;52.690;6.268;2024-01-30T02:38:17;18.92;;;12.25;;
59659;SDS011;45534;52.690;6.268;2024-01-30T02:40:43;17.02;;;11.02;;
59659;SDS011;45534;52.690;6.268;2024-01-30T02:43:08;21.35;;;12.82;;
59659;SDS011;45534;52.690;6.268;2024-01-30T02:45:34;18.05;;;12.40;;
59659;SDS011;45534;52.690;6.268;2024-01-30T02:48:00;21.08;;;12.88;;
59659;SDS011;45534;52.690;6.268;2024-01-30T02:50:25;17.30;;;12.05;;
59659;SDS011;45534;52.690;6.268;2024-01-30T02:52:51;18.95;;;14.00;;
59659;SDS011;45534;52.690;6.268;2024-01-30T02:55:17;25.90;;;13.50;;
59659;SDS011;45534;52.690;6.268;2024-01-30T02:57:43;18.73;;;13.55;;
59659;SDS011;45534;52.690;6.268;2024-01-30T03:00:09;17.95;;;11.07;;
59659;SDS011;45534;52.690;6.268;2024-01-30T03:02:36;18.27;;;11.77;;
59659;SDS011;45534;52.690;6.268;2024-01-30T03:05:02;20.67;;;14.38;;
59659;SDS011;45534;52.690;6.268;2024-01-30T03:07:31;18.42;;;11.48;;
59659;SDS011;45534;52.690;6.268;2024-01-30T03:09:56;19.27;;;10.90;;
59659;SDS011;45534;52.690;6.268;2024-01-30T03:12:22;16.65;;;11.55;;
59659;SDS011;45534;52.690;6.268;2024-01-30T03:14:48;22.08;;;12.50;;
59659;SDS011;45534;52.690;6.268;2024-01-30T03:17:14;16.48;;;13.43;;
59659;SDS011;45534;52.690;6.268;2024-01-30T03:19:40;20.98;;;12.18;;
59659;SDS011;45534;52.690;6.268;2024-01-30T03:22:06;21.50;;;12.57;;
59659;SDS011;45534;52.690;6.268;2024-01-30T03:24:32;20.30;;;14.73;;
59659;SDS011;45534;52.690;6.268;2024-01-30T03:26:57;20.30;;;12.98;;
59659;SDS011;45534;52.690;6.268;2024-01-30T03:29:23;21.48;;;12.20;;
59659;SDS011;45534;52.690;6.268;2024-01-30T03:31:49;20.08;;;11.88;;
59659;SDS011;45534;52.690;6.268;2024-01-30T03:34:14;20.77;;;13.02;;
59659;SDS011;45534;52.690;6.268;2024-01-30T03:36:40;21.95;;;13.85;;
59659;SDS011;45534;52.690;6.268;2024-01-30T03:39:05;18.27;;;14.27;;
59659;SDS011;45534;52.690;6.268;2024-01-30T03:41:31;23.13;;;18.65;;
59659;SDS011;45534;52.690;6.268;2024-01-30T03:43:57;16.45;;;12.35;;
59659;SDS011;45534;52.690;6.268;2024-01-30T03:46:23;24.35;;;15.35;;
59659;SDS011;45534;52.690;6.268;2024-01-30T03:48:49;15.93;;;11.95;;
59659;SDS011;45534;52.690;6.268;2024-01-30T03:51:15;18.52;;;12.13;;
59659;SDS011;45534;52.690;6.268;2024-01-30T03:53:41;23.05;;;15.25;;
59659;SDS011;45534;52.690;6.268;2024-01-30T03:56:07;15.95;;;11.85;;
59659;SDS011;45534;52.690;6.268;2024-01-30T03:58:34;18.40;;;12.45;;
59659;SDS011;45534;52.690;6.268;2024-01-30T04:01:00;15.50;;;9.90;;
59659;SDS011;45534;52.690;6.268;2024-01-30T04:03:25;19.13;;;13.00;;
59659;SDS011;45534;52.690;6.268;2024-01-30T04:05:51;16.23;;;11.15;;
59659;SDS011;45534;52.690;6.268;2024-01-30T04:08:18;18.55;;;11.65;;
59659;SDS011;45534;52.690;6.268;2024-01-30T04:10:43;19.77;;;14.40;;
59659;SDS011;45534;52.690;6.268;2024-01-30T04:13:09;18.90;;;14.23;;
59659;SDS011;45534;52.690;6.268;2024-01-30T04:15:35;15.65;;;13.35;;
59659;SDS011;45534;52.690;6.268;2024-01-30T04:18:01;17.13;;;10.18;;
59659;SDS011;45534;52.690;6.268;2024-01-30T04:20:26;16.88;;;12.52;;
59659;SDS011;45534;52.690;6.268;2024-01-30T04:22:52;18.45;;;14.00;;
59659;SDS011;45534;52.690;6.268;2024-01-30T04:25:18;16.85;;;10.43;;
59659;SDS011;45534;52.690;6.268;2024-01-30T04:27:44;17.13;;;12.18;;
59659;SDS011;45534;52.690;6.268;2024-01-30T04:30:09;16.75;;;10.95;;
59659;SDS011;45534;52.690;6.268;2024-01-30T04:32:35;16.38;;;10.90;;
59659;SDS011;45534;52.690;6.268;2024-01-30T04:35:01;16.58;;;11.32;;
59659;SDS011;45534;52.690;6.268;2024-01-30T04:37:28;20.25;;;14.25;;
59659;SDS011;45534;52.690;6.268;2024-01-30T04:39:53;18.75;;;10.57;;
59659;SDS011;45534;52.690;6.268;2024-01-30T04:42:19;16.58;;;12.70;;
59659;SDS011;45534;52.690;6.268;2024-01-30T04:44:45;13.73;;;10.10;;
59659;SDS011;45534;52.690;6.268;2024-01-30T04:47:10;18.85;;;11.00;;
59659;SDS011;45534;52.690;6.268;2024-01-30T04:49:40;17.67;;;12.80;;
59659;SDS011;45534;52.690;6.268;2024-01-30T04:52:06;18.15;;;10.65;;
59659;SDS011;45534;52.690;6.268;2024-01-30T04:54:32;18.65;;;12.60;;
59659;SDS011;45534;52.690;6.268;2024-01-30T04:56:59;19.60;;;12.38;;
59659;SDS011;45534;52.690;6.268;2024-01-30T04:59:25;19.13;;;11.27;;
59659;SDS011;45534;52.690;6.268;2024-01-30T05:01:51;17.48;;;10.70;;
59659;SDS011;45534;52.690;6.268;2024-01-30T05:04:16;28.85;;;10.38;;
59659;SDS011;45534;52.690;6.268;2024-01-30T05:06:42;17.67;;;11.85;;
59659;SDS011;45534;52.690;6.268;2024-01-30T05:09:08;15.05;;;12.52;;
59659;SDS011;45534;52.690;6.268;2024-01-30T05:11:37;13.20;;;9.57;;
59659;SDS011;45534;52.690;6.268;2024-01-30T05:14:04;16.00;;;12.20;;
59659;SDS011;45534;52.690;6.268;2024-01-30T05:16:30;13.65;;;10.10;;
59659;SDS011;45534;52.690;6.268;2024-01-30T05:18:56;18.25;;;12.13;;
59659;SDS011;45534;52.690;6.268;2024-01-30T05:21:22;22.25;;;11.50;;
59659;SDS011;45534;52.690;6.268;2024-01-30T05:23:48;19.15;;;11.90;;
59659;SDS011;45534;52.690;6.268;2024-01-30T05:26:13;9.98;;;9.02;;
59659;SDS011;45534;52.690;6.268;2024-01-30T05:28:39;13.68;;;10.00;;
59659;SDS011;45534;52.690;6.268;2024-01-30T05:31:05;17.25;;;11.57;;
59659;SDS011;45534;52.690;6.268;2024-01-30T05:33:30;16.95;;;12.77;;
59659;SDS011;45534;52.690;6.268;2024-01-30T05:35:56;11.00;;;7.93;;
59659;SDS011;45534;52.690;6.268;2024-01-30T05:38:22;16.08;;;8.30;;
59659;SDS011;45534;52.690;6.268;2024-01-30T05:40:47;21.67;;;10.93;;
59659;SDS011;45534;52.690;6.268;2024-01-30T05:43:13;13.00;;;8.77;;
59659;SDS011;45534;52.690;6.268;2024-01-30T05:45:39;17.27;;;11.27;;
59659;SDS011;45534;52.690;6.268;2024-01-30T05:48:05;15.70;;;11.23;;
59659;SDS011;45534;52.690;6.268;2024-01-30T05:50:30;14.23;;;10.13;;
59659;SDS011;45534;52.690;6.268;2024-01-30T05:52:56;18.90;;;11.68;;
59659;SDS011;45534;52.690;6.268;2024-01-30T05:55:22;13.13;;;8.35;;
59659;SDS011;45534;52.690;6.268;2024-01-30T05:57:47;17.92;;;11.15;;
59659;SDS011;45534;52.690;6.268;2024-01-30T06:00:13;20.90;;;10.73;;
59659;SDS011;45534;52.690;6.268;2024-01-30T06:02:40;16.95;;;12.15;;
59659;SDS011;45534;52.690;6.268;2024-01-30T06:05:05;30.08;;;10.23;;
59659;SDS011;45534;52.690;6.268;2024-01-30T06:07:31;12.15;;;9.88;;
59659;SDS011;45534;52.690;6.268;2024-01-30T06:09:57;12.43;;;8.38;;
59659;SDS011;45534;52.690;6.268;2024-01-30T06:12:23;19.05;;;9.68;;
59659;SDS011;45534;52.690;6.268;2024-01-30T06:14:48;11.55;;;8.10;;
59659;SDS011;45534;52.690;6.268;2024-01-30T06:17:14;13.27;;;8.65;;
59659;SDS011;45534;52.690;6.268;2024-01-30T06:19:40;11.50;;;8.48;;
59659;SDS011;45534;52.690;6.268;2024-01-30T06:22:06;17.45;;;10.38;;
59659;SDS011;45534;52.690;6.268;2024-01-30T06:24:31;18.85;;;9.98;;
59659;SDS011;45534;52.690;6.268;2024-01-30T06:26:58;20.40;;;12.57;;
59659;SDS011;45534;52.690;6.268;2024-01-30T06:29:24;11.38;;;7.20;;
59659;SDS011;45534;52.690;6.268;2024-01-30T06:31:51;15.27;;;10.60;;
59659;SDS011;45534;52.690;6.268;2024-01-30T06:34:17;10.90;;;7.88;;
59659;SDS011;45534;52.690;6.268;2024-01-30T06:36:43;12.85;;;8.32;;
59659;SDS011;45534;52.690;6.268;2024-01-30T06:39:08;13.93;;;9.55;;
59659;SDS011;45534;52.690;6.268;2024-01-30T06:41:34;13.80;;;9.48;;
59659;SDS011;45534;52.690;6.268;2024-01-30T06:44:01;22.17;;;10.50;;
59659;SDS011;45534;52.690;6.268;2024-01-30T06:46:28;13.07;;;9.88;;
59659;SDS011;45534;52.690;6.268;2024-01-30T06:48:53;14.48;;;9.50;;
59659;SDS011;45534;52.690;6.268;2024-01-30T06:51:19;15.43;;;10.98;;
59659;SDS011;45534;52.690;6.268;2024-01-30T06:53:45;15.63;;;9.60;;
59659;SDS011;45534;52.690;6.268;2024-01-30T06:56:11;15.05;;;9.10;;
59659;SDS011;45534;52.690;6.268;2024-01-30T06:58:36;8.55;;;6.55;;
59659;SDS011;45534;52.690;6.268;2024-01-30T07:01:02;12.13;;;9.13;;
59659;SDS011;45534;52.690;6.268;2024-01-30T07:03:28;12.02;;;8.90;;
59659;SDS011;45534;52.690;6.268;2024-01-30T07:05:53;14.05;;;8.27;;
59659;SDS011;45534;52.690;6.268;2024-01-30T07:08:19;18.63;;;10.23;;
59659;SDS011;45534;52.690;6.268;2024-01-30T07:10:45;15.73;;;8.55;;
59659;SDS011;45534;52.690;6.268;2024-01-30T07:13:11;13.13;;;7.95;;
59659;SDS011;45534;52.690;6.268;2024-01-30T07:15:37;12.07;;;7.80;;
59659;SDS011;45534;52.690;6.268;2024-01-30T07:18:03;12.55;;;8.23;;
59659;SDS011;45534;52.690;6.268;2024-01-30T07:20:30;13.57;;;8.55;;
59659;SDS011;45534;52.690;6.268;2024-01-30T07:22:57;17.83;;;9.60;;
59659;SDS011;45534;52.690;6.268;2024-01-30T07:25:23;13.27;;;8.95;;
59659;SDS011;45534;52.690;6.268;2024-01-30T07:27:52;10.57;;;7.78;;
59659;SDS011;45534;52.690;6.268;2024-01-30T07:30:18;12.95;;;9.00;;
59659;SDS011;45534;52.690;6.268;2024-01-30T07:32:48;14.80;;;9.40;;
59659;SDS011;45534;52.690;6.268;2024-01-30T07:35:14;14.80;;;8.73;;
59659;SDS011;45534;52.690;6.268;2024-01-30T07:37:39;9.00;;;6.47;;
59659;SDS011;45534;52.690;6.268;2024-01-30T07:40:05;11.00;;;7.53;;
59659;SDS011;45534;52.690;6.268;2024-01-30T07:42:32;15.05;;;10.43;;
59659;SDS011;45534;52.690;6.268;2024-01-30T07:44:58;16.38;;;8.25;;
59659;SDS011;45534;52.690;6.268;2024-01-30T07:47:25;14.02;;;8.88;;
59659;SDS011;45534;52.690;6.268;2024-01-30T07:49:50;17.05;;;10.48;;
59659;SDS011;45534;52.690;6.268;2024-01-30T07:52:16;17.45;;;9.52;;
59659;SDS011;45534;52.690;6.268;2024-01-30T07:54:48;11.88;;;7.70;;
59659;SDS011;45534;52.690;6.268;2024-01-30T07:57:14;15.27;;;9.13;;
59659;SDS011;45534;52.690;6.268;2024-01-30T07:59:42;15.35;;;9.10;;
59659;SDS011;45534;52.690;6.268;2024-01-30T08:02:09;14.10;;;11.57;;
59659;SDS011;45534;52.690;6.268;2024-01-30T08:04:35;14.30;;;8.60;;
59659;SDS011;45534;52.690;6.268;2024-01-30T08:07:01;12.23;;;8.13;;
59659;SDS011;45534;52.690;6.268;2024-01-30T08:09:27;11.52;;;7.07;;
59659;SDS011;45534;52.690;6.268;2024-01-30T08:11:52;9.82;;;6.95;;
59659;SDS011;45534;52.690;6.268;2024-01-30T08:14:18;11.40;;;8.15;;
59659;SDS011;45534;52.690;6.268;2024-01-30T08:16:44;16.83;;;10.40;;
59659;SDS011;45534;52.690;6.268;2024-01-30T08:19:09;15.82;;;8.30;;
59659;SDS011;45534;52.690;6.268;2024-01-30T08:21:35;15.75;;;10.10;;
59659;SDS011;45534;52.690;6.268;2024-01-30T08:24:04;10.27;;;7.07;;
59659;SDS011;45534;52.690;6.268;2024-01-30T08:26:31;19.00;;;9.80;;
59659;SDS011;45534;52.690;6.268;2024-01-30T08:28:57;16.90;;;8.95;;
59659;SDS011;45534;52.690;6.268;2024-01-30T08:31:23;15.10;;;8.10;;
59659;SDS011;45534;52.690;6.268;2024-01-30T08:33:49;12.55;;;8.02;;
59659;SDS011;45534;52.690;6.268;2024-01-30T08:36:15;13.88;;;9.90;;
59659;SDS011;45534;52.690;6.268;2024-01-30T08:38:41;9.88;;;8.38;;
59659;SDS011;45534;52.690;6.268;2024-01-30T08:41:07;11.80;;;8.18;;
59659;SDS011;45534;52.690;6.268;2024-01-30T08:43:33;12.23;;;7.85;;
59659;SDS011;45534;52.690;6.268;2024-01-30T08:45:59;11.88;;;8.02;;
59659;SDS011;45534;52.690;6.268;2024-01-30T08:48:25;10.40;;;6.80;;
59659;SDS011;45534;52.690;6.268;2024-01-30T08:50:51;12.63;;;7.95;;
59659;SDS011;45534;52.690;6.268;2024-01-30T08:53:17;13.00;;;9.75;;
59659;SDS011;45534;52.690;6.268;2024-01-30T08:55:42;10.50;;;6.40;;
59659;SDS011;45534;52.690;6.268;2024-01-30T08:58:08;15.77;;;10.75;;
59659;SDS011;45534;52.690;6.268;2024-01-30T09:00:34;10.60;;;7.57;;
59659;SDS011;45534;52.690;6.268;2024-01-30T09:03:00;12.00;;;8.25;;
59659;SDS011;45534;52.690;6.268;2024-01-30T09:05:25;13.93;;;9.60;;
59659;SDS011;45534;52.690;6.268;2024-01-30T09:07:51;13.27;;;7.20;;
59659;SDS011;45534;52.690;6.268;2024-01-30T09:10:17;22.33;;;8.23;;
59659;SDS011;45534;52.690;6.268;2024-01-30T09:12:42;11.02;;;7.28;;
59659;SDS011;45534;52.690;6.268;2024-01-30T09:15:08;14.95;;;7.90;;
59659;SDS011;45534;52.690;6.268;2024-01-30T09:17:34;11.45;;;8.43;;
59659;SDS011;45534;52.690;6.268;2024-01-30T09:20:00;16.42;;;10.15;;
59659;SDS011;45534;52.690;6.268;2024-01-30T09:22:25;11.70;;;9.15;;
59659;SDS011;45534;52.690;6.268;2024-01-30T09:24:51;12.45;;;10.43;;
59659;SDS011;45534;52.690;6.268;2024-01-30T09:27:17;15.98;;;10.40;;
59659;SDS011;45534;52.690;6.268;2024-01-30T09:29:42;17.25;;;8.07;;
59659;SDS011;45534;52.690;6.268;2024-01-30T09:32:08;15.07;;;8.02;;
59659;SDS011;45534;52.690;6.268;2024-01-30T09:34:34;9.48;;;5.53;;
59659;SDS011;45534;52.690;6.268;2024-01-30T09:37:00;14.52;;;8.55;;
59659;SDS011;45534;52.690;6.268;2024-01-30T09:39:25;13.07;;;7.55;;
59659;SDS011;45534;52.690;6.268;2024-01-30T09:42:02;14.00;;;7.95;;
59659;SDS011;45534;52.690;6.268;2024-01-30T09:44:34;12.52;;;9.18;;
59659;SDS011;45534;52.690;6.268;2024-01-30T09:47:02;15.25;;;9.38;;
59659;SDS011;45534;52.690;6.268;2024-01-30T09:49:33;12.10;;;7.00;;
59659;SDS011;45534;52.690;6.268;2024-01-30T09:52:01;12.25;;;6.75;;
59659;SDS011;45534;52.690;6.268;2024-01-30T09:54:30;14.32;;;8.93;;
59659;SDS011;45534;52.690;6.268;2024-01-30T09:56:57;13.38;;;8.30;;
59659;SDS011;45534;52.690;6.268;2024-01-30T09:59:23;10.13;;;7.72;;
59659;SDS011;45534;52.690;6.268;2024-01-30T10:01:49;13.90;;;7.90;;
59659;SDS011;45534;52.690;6.268;2024-01-30T10:04:15;13.45;;;8.60;;
59659;SDS011;45534;52.690;6.268;2024-01-30T10:06:41;13.05;;;9.80;;
59659;SDS011;45534;52.690;6.268;2024-01-30T10:09:07;15.98;;;9.45;;
59659;SDS011;45534;52.690;6.268;2024-01-30T10:11:34;12.68;;;7.75;;
59659;SDS011;45534;52.690;6.268;2024-01-30T10:14:01;12.75;;;8.07;;
59659;SDS011;45534;52.690;6.268;2024-01-30T10:16:27;18.70;;;8.77;;
59659;SDS011;45534;52.690;6.268;2024-01-30T10:18:53;10.75;;;6.07;;
59659;SDS011;45534;52.690;6.268;2024-01-30T10:21:18;21.48;;;8.57;;
59659;SDS011;45534;52.690;6.268;2024-01-30T10:23:44;10.88;;;6.85;;
59659;SDS011;45534;52.690;6.268;2024-01-30T10:26:10;17.98;;;7.00;;
59659;SDS011;45534;52.690;6.268;2024-01-30T10:28:36;14.93;;;7.43;;
59659;SDS011;45534;52.690;6.268;2024-01-30T10:31:02;13.98;;;9.05;;
59659;SDS011;45534;52.690;6.268;2024-01-30T10:33:31;17.30;;;8.20;;
59659;SDS011;45534;52.690;6.268;2024-01-30T10:35:59;16.23;;;8.85;;
59659;SDS011;45534;52.690;6.268;2024-01-30T10:38:28;17.73;;;9.80;;
59659;SDS011;45534;52.690;6.268;2024-01-30T10:40:58;12.32;;;7.15;;
59659;SDS011;45534;52.690;6.268;2024-01-30T10:43:31;16.17;;;8.35;;
59659;SDS011;45534;52.690;6.268;2024-01-30T10:46:06;15.13;;;9.55;;
59659;SDS011;45534;52.690;6.268;2024-01-30T10:51:14;14.35;;;7.88;;
59659;SDS011;45534;52.690;6.268;2024-01-30T10:53:41;18.85;;;9.25;;
59659;SDS011;45534;52.690;6.268;2024-01-30T10:56:08;16.27;;;9.75;;
59659;SDS011;45534;52.690;6.268;2024-01-30T10:58:35;7.53;;;5.85;;
59659;SDS011;45534;52.690;6.268;2024-01-30T11:01:00;10.95;;;7.93;;
59659;SDS011;45534;52.690;6.268;2024-01-30T11:03:27;13.63;;;8.20;;
59659;SDS011;45534;52.690;6.268;2024-01-30T11:05:53;12.93;;;7.53;;
59659;SDS011;45534;52.690;6.268;2024-01-30T11:08:25;13.70;;;8.90;;
59659;SDS011;45534;52.690;6.268;2024-01-30T11:10:56;24.92;;;7.50;;
59659;SDS011;45534;52.690;6.268;2024-01-30T11:13:31;15.50;;;9.25;;
59659;SDS011;45534;52.690;6.268;2024-01-30T11:16:00;16.08;;;9.73;;
59659;SDS011;45534;52.690;6.268;2024-01-30T11:18:30;12.40;;;9.25;;
59659;SDS011;45534;52.690;6.268;2024-01-30T11:20:57;12.55;;;7.65;;
59659;SDS011;45534;52.690;6.268;2024-01-30T11:23:26;9.88;;;7.07;;
59659;SDS011;45534;52.690;6.268;2024-01-30T11:25:55;11.88;;;8.93;;
59659;SDS011;45534;52.690;6.268;2024-01-30T11:28:22;10.88;;;7.78;;
59659;SDS011;45534;52.690;6.268;2024-01-30T11:30:48;16.25;;;7.70;;
59659;SDS011;45534;52.690;6.268;2024-01-30T11:33:16;16.05;;;7.47;;
59659;SDS011;45534;52.690;6.268;2024-01-30T11:35:56;12.63;;;8.45;;
59659;SDS011;45534;52.690;6.268;2024-01-30T11:38:23;9.30;;;7.38;;
59659;SDS011;45534;52.690;6.268;2024-01-30T11:40:52;9.80;;;6.65;;
59659;SDS011;45534;52.690;6.268;2024-01-30T11:43:19;9.63;;;6.32;;
59659;SDS011;45534;52.690;6.268;2024-01-30T11:45:45;12.57;;;8.48;;
59659;SDS011;45534;52.690;6.268;2024-01-30T11:48:11;18.10;;;6.47;;
59659;SDS011;45534;52.690;6.268;2024-01-30T11:50:38;18.52;;;8.23;;
59659;SDS011;45534;52.690;6.268;2024-01-30T11:53:05;10.57;;;7.10;;
59659;SDS011;45534;52.690;6.268;2024-01-30T11:55:31;9.77;;;6.82;;
59659;SDS011;45534;52.690;6.268;2024-01-30T11:57:57;12.27;;;8.73;;
59659;SDS011;45534;52.690;6.268;2024-01-30T12:00:24;21.95;;;12.07;;
59659;SDS011;45534;52.690;6.268;2024-01-30T12:02:50;7.03;;;5.95;;
59659;SDS011;45534;52.690;6.268;2024-01-30T12:05:20;12.43;;;7.53;;
59659;SDS011;45534;52.690;6.268;2024-01-30T12:07:46;17.65;;;8.85;;
59659;SDS011;45534;52.690;6.268;2024-01-30T12:10:13;9.70;;;6.22;;
59659;SDS011;45534;52.690;6.268;2024-01-30T12:12:39;11.13;;;6.72;;
59659;SDS011;45534;52.690;6.268;2024-01-30T12:15:07;8.60;;;5.65;;
59659;SDS011;45534;52.690;6.268;2024-01-30T12:17:34;11.82;;;6.57;;
59659;SDS011;45534;52.690;6.268;2024-01-30T12:20:06;13.32;;;4.85;;
59659;SDS011;45534;52.690;6.268;2024-01-30T12:22:53;11.23;;;5.20;;
59659;SDS011;45534;52.690;6.268;2024-01-30T12:25:20;8.32;;;4.88;;
59659;SDS011;45534;52.690;6.268;2024-01-30T12:27:48;10.18;;;4.85;;
59659;SDS011;45534;52.690;6.268;2024-01-30T12:30:16;24.30;;;6.03;;
59659;SDS011;45534;52.690;6.268;2024-01-30T12:32:45;6.38;;;3.70;;
59659;SDS011;45534;52.690;6.268;2024-01-30T12:35:13;8.48;;;4.50;;
59659;SDS011;45534;52.690;6.268;2024-01-30T12:37:40;11.73;;;4.95;;
59659;SDS011;45534;52.690;6.268;2024-01-30T12:40:07;6.75;;;5.38;;
59659;SDS011;45534;52.690;6.268;2024-01-30T12:42:34;4.47;;;3.65;;
59659;SDS011;45534;52.690;6.268;2024-01-30T12:45:02;5.85;;;4.40;;
59659;SDS011;45534;52.690;6.268;2024-01-30T12:47:29;3.75;;;3.30;;
59659;SDS011;45534;52.690;6.268;2024-01-30T12:49:55;5.13;;;2.90;;
59659;SDS011;45534;52.690;6.268;2024-01-30T12:52:21;7.43;;;4.53;;
59659;SDS011;45534;52.690;6.268;2024-01-30T12:54:47;4.68;;;3.78;;
59659;SDS011;45534;52.690;6.268;2024-01-30T12:57:14;7.30;;;3.42;;
59659;SDS011;45534;52.690;6.268;2024-01-30T12:59:39;11.57;;;3.78;;
59659;SDS011;45534;52.690;6.268;2024-01-30T13:02:05;4.18;;;3.40;;
59659;SDS011;45534;52.690;6.268;2024-01-30T13:04:32;8.88;;;3.92;;
59659;SDS011;45534;52.690;6.268;2024-01-30T13:06:58;6.07;;;4.05;;
59659;SDS011;45534;52.690;6.268;2024-01-30T13:09:25;4.53;;;3.58;;
59659;SDS011;45534;52.690;6.268;2024-01-30T13:11:51;6.10;;;3.13;;
59659;SDS011;45534;52.690;6.268;2024-01-30T13:14:18;9.75;;;3.80;;
59659;SDS011;45534;52.690;6.268;2024-01-30T13:16:44;4.63;;;3.35;;
59659;SDS011;45534;52.690;6.268;2024-01-30T13:19:10;6.90;;;3.63;;
59659;SDS011;45534;52.690;6.268;2024-01-30T13:21:35;5.75;;;4.22;;
59659;SDS011;45534;52.690;6.268;2024-01-30T13:24:01;4.90;;;2.75;;
59659;SDS011;45534;52.690;6.268;2024-01-30T13:26:27;3.30;;;2.92;;
59659;SDS011;45534;52.690;6.268;2024-01-30T13:28:53;5.38;;;4.00;;
59659;SDS011;45534;52.690;6.268;2024-01-30T13:31:19;5.45;;;2.55;;
59659;SDS011;45534;52.690;6.268;2024-01-30T13:33:45;3.88;;;3.10;;
59659;SDS011;45534;52.690;6.268;2024-01-30T13:36:11;6.97;;;3.17;;
59659;SDS011;45534;52.690;6.268;2024-01-30T13:38:37;6.45;;;5.10;;
59659;SDS011;45534;52.690;6.268;2024-01-30T13:41:04;5.95;;;2.85;;
59659;SDS011;45534;52.690;6.268;2024-01-30T13:43:30;4.00;;;3.60;;
59659;SDS011;45534;52.690;6.268;2024-01-30T13:45:55;7.15;;;4.22;;
59659;SDS011;45534;52.690;6.268;2024-01-30T13:48:21;9.13;;;3.92;;
59659;SDS011;45534;52.690;6.268;2024-01-30T13:50:47;4.65;;;2.78;;
59659;SDS011;45534;52.690;6.268;2024-01-30T13:53:13;2.92;;;2.63;;
59659;SDS011;45534;52.690;6.268;2024-01-30T13:55:39;7.53;;;2.72;;
59659;SDS011;45534;52.690;6.268;2024-01-30T13:58:05;4.32;;;2.80;;
59659;SDS011;45534;52.690;6.268;2024-01-30T14:00:31;2.33;;;2.22;;
59659;SDS011;45534;52.690;6.268;2024-01-30T14:02:57;4.50;;;2.33;;
59659;SDS011;45534;52.690;6.268;2024-01-30T14:05:24;3.92;;;2.60;;
59659;SDS011;45534;52.690;6.268;2024-01-30T14:07:53;3.42;;;2.58;;
59659;SDS011;45534;52.690;6.268;2024-01-30T14:10:19;2.17;;;2.03;;
59659;SDS011;45534;52.690;6.268;2024-01-30T14:12:45;6.65;;;4.10;;
59659;SDS011;45534;52.690;6.268;2024-01-30T14:15:10;4.05;;;2.80;;
59659;SDS011;45534;52.690;6.268;2024-01-30T14:17:37;2.60;;;2.38;;
59659;SDS011;45534;52.690;6.268;2024-01-30T14:20:03;2.10;;;1.98;;
59659;SDS011;45534;52.690;6.268;2024-01-30T14:22:30;7.05;;;2.67;;
59659;SDS011;45534;52.690;6.268;2024-01-30T14:24:56;3.35;;;2.50;;
59659;SDS011;45534;52.690;6.268;2024-01-30T14:27:22;2.70;;;2.50;;
59659;SDS011;45534;52.690;6.268;2024-01-30T14:29:47;5.93;;;2.13;;
59659;SDS011;45534;52.690;6.268;2024-01-30T14:32:13;4.05;;;3.10;;